Time;durP1;ratioP1;P1;durP2;ratioP2;P2;SDS_P1;SDS_P2;PMS_P1;PMS_P2;Temp;Humidity;BMP_temperature;BMP_pressure;BME280_temperature;BME280_humidity;BME280_pressure;Samples;Min_cycle;Max_cycle;Signal;HPM_P1;HPM_P2
2022/03/16 00:01:05;;;;;;;53.65;25.95;;;;;;;13.09;39.05;99477.09;4382701;79;28508;-81
2022/03/16 00:07:07;;;;;;;52.80;26.52;;;;;;;13.14;38.94;99468.28;4393079;79;28499;-87
2022/03/16 00:13:10;;;;;;;50.48;26.35;;;;;;;12.96;40.03;99466.52;4383466;79;28483;-86
2022/03/16 00:19:11;;;;;;;55.08;27.05;;;;;;;12.79;40.51;99461.86;4364995;79;28495;-85
2022/03/16 00:25:15;;;;;;;52.30;25.90;;;;;;;12.86;39.96;99459.03;4368498;79;28521;-85
2022/03/16 00:31:19;;;;;;;57.58;27.62;;;;;;;12.91;40.00;99456.98;4391594;79;28505;-88
2022/03/16 00:37:22;;;;;;;57.60;28.92;;;;;;;12.82;40.09;99447.89;4368534;79;28491;-87
2022/03/16 00:43:24;;;;;;;55.88;27.62;;;;;;;12.71;40.16;99447.91;4379994;79;28525;-87
2022/03/16 00:49:25;;;;;;;55.12;26.75;;;;;;;12.54;41.06;99444.02;4386682;79;28527;-87
2022/03/16 00:55:29;;;;;;;55.48;27.67;;;;;;;12.65;40.26;99438.34;4382031;79;28537;-85
2022/03/16 01:01:30;;;;;;;57.55;27.93;;;;;;;12.73;39.85;99425.02;4371741;79;28489;-85
2022/03/16 01:07:31;;;;;;;54.55;27.30;;;;;;;12.89;39.32;99428.06;4386393;79;28538;-84
2022/03/16 01:13:33;;;;;;;60.15;28.07;;;;;;;12.73;40.56;99430.41;4383212;79;28493;-85
2022/03/16 01:19:35;;;;;;;60.88;29.10;;;;;;;12.40;38.58;99410.25;4357441;79;28529;-86
2022/03/16 01:25:36;;;;;;;53.40;26.93;;;;;;;12.53;38.44;99405.16;4378920;79;28522;-88
2022/03/16 01:31:38;;;;;;;58.38;26.93;;;;;;;12.71;39.81;99419.05;4375835;79;28501;-87
2022/03/16 01:37:43;;;;;;;60.20;28.12;;;;;;;12.78;39.22;99417.05;4374581;79;28582;-88
2022/03/16 01:43:43;;;;;;;58.10;27.95;;;;;;;12.92;38.84;99406.00;4376090;79;28466;-88
2022/03/16 01:49:49;;;;;;;59.25;27.00;;;;;;;12.92;38.00;99391.16;4377643;79;28528;-86
2022/03/16 01:55:50;;;;;;;57.27;28.45;;;;;;;12.87;38.55;99377.57;4369352;79;28615;-84
2022/03/16 02:01:54;;;;;;;56.20;27.93;;;;;;;12.68;38.67;99402.80;4374226;79;28987;-83
2022/03/16 02:07:56;;;;;;;58.98;29.37;;;;;;;12.42;40.06;99404.09;4378285;79;28507;-84
2022/03/16 02:13:57;;;;;;;55.98;27.75;;;;;;;12.34;40.56;99405.78;4358662;81;28520;-84
2022/03/16 02:19:58;;;;;;;55.23;26.95;;;;;;;12.70;39.97;99402.56;4355795;79;28465;-84
2022/03/16 02:26:00;;;;;;;60.23;27.98;;;;;;;12.58;40.15;99387.73;4379213;80;28525;-88
2022/03/16 02:32:01;;;;;;;55.03;27.60;;;;;;;12.57;40.27;99386.64;4393417;79;28497;-87
2022/03/16 02:38:03;;;;;;;52.55;26.65;;;;;;;12.40;40.54;99388.17;4380419;79;28487;-86
2022/03/16 02:44:05;;;;;;;49.35;26.10;;;;;;;12.43;40.79;99394.95;4356058;80;28505;-87
2022/03/16 02:50:07;;;;;;;56.85;27.07;;;;;;;12.27;41.51;99386.52;4389607;80;28928;-85
2022/03/16 02:56:08;;;;;;;50.75;26.70;;;;;;;12.29;41.23;99388.98;4385201;79;28549;-82
2022/03/16 03:02:11;;;;;;;57.10;26.05;;;;;;;12.21;41.13;99403.61;4378499;79;28525;-86
2022/03/16 03:08:13;;;;;;;55.12;27.15;;;;;;;12.14;42.06;99405.62;4385743;79;28488;-84
2022/03/16 03:14:14;;;;;;;57.83;28.30;;;;;;;12.17;41.43;99405.14;4380630;79;28452;-85
2022/03/16 03:20:16;;;;;;;54.85;26.50;;;;;;;11.97;41.10;99411.64;4380797;79;28502;-86
2022/03/16 03:26:17;;;;;;;52.13;26.05;;;;;;;12.31;40.17;99406.26;4376600;80;28565;-89
2022/03/16 03:32:19;;;;;;;54.42;25.85;;;;;;;12.33;40.81;99407.67;4435201;79;28537;-89
2022/03/16 03:38:20;;;;;;;52.88;27.52;;;;;;;12.49;40.23;99401.28;4393698;80;28487;-88
2022/03/16 03:44:22;;;;;;;49.60;25.12;;;;;;;12.62;40.44;99399.70;4367749;81;28491;-87
2022/03/16 03:50:23;;;;;;;54.08;26.10;;;;;;;12.57;40.60;99401.47;4371687;80;28481;-88
2022/03/16 03:56:24;;;;;;;55.00;26.68;;;;;;;12.33;41.42;99404.98;4374422;80;28530;-88
2022/03/16 04:02:25;;;;;;;50.48;24.90;;;;;;;12.24;41.49;99415.81;4360609;80;28496;-89
2022/03/16 04:08:27;;;;;;;48.40;24.50;;;;;;;12.47;41.25;99402.88;4380577;80;28564;-87
2022/03/16 04:14:28;;;;;;;49.85;25.60;;;;;;;12.48;41.45;99410.42;4348517;80;28534;-86
2022/03/16 04:20:30;;;;;;;49.67;25.77;;;;;;;12.58;41.42;99403.11;4373842;80;28477;-87
2022/03/16 04:26:32;;;;;;;47.05;24.35;;;;;;;12.42;42.30;99413.53;4375723;80;28577;-86
2022/03/16 04:32:33;;;;;;;49.75;24.35;;;;;;;12.19;42.74;99409.77;4357976;80;28512;-90
2022/03/16 04:38:34;;;;;;;47.80;22.62;;;;;;;11.69;44.22;99412.27;4363637;80;28531;-88
2022/03/16 04:44:36;;;;;;;47.10;23.57;;;;;;;12.02;43.70;99408.77;4353961;80;28505;-88
2022/03/16 04:50:41;;;;;;;48.02;23.35;;;;;;;12.26;43.18;99410.48;4364565;80;28488;-88
2022/03/16 04:56:43;;;;;;;52.83;24.37;;;;;;;12.29;43.40;99415.11;4373625;80;28478;-84
2022/03/16 05:02:45;;;;;;;42.98;21.60;;;;;;;12.33;43.41;99418.45;4386588;80;28584;-85
2022/03/16 05:08:47;;;;;;;44.15;23.55;;;;;;;12.82;42.50;99422.25;4356538;80;28507;-87
2022/03/16 05:14:49;;;;;;;43.10;23.60;;;;;;;12.70;42.94;99424.15;4373448;80;28519;-87
2022/03/16 05:20:50;;;;;;;48.58;23.57;;;;;;;12.48;43.49;99437.39;4325876;81;28593;-85
2022/03/16 05:26:51;;;;;;;53.00;25.75;;;;;;;12.12;45.49;99444.92;4332156;80;28568;-86
2022/03/16 05:32:56;;;;;;;52.27;25.45;;;;;;;12.22;45.89;99441.64;4376995;80;28466;-86
2022/03/16 05:38:57;;;;;;;49.42;24.25;;;;;;;12.40;45.54;99435.88;4363061;80;28504;-89
2022/03/16 05:44:59;;;;;;;50.52;25.12;;;;;;;12.38;45.88;99435.28;4359903;80;28538;-83
2022/03/16 05:51:01;;;;;;;44.60;22.37;;;;;;;12.71;45.23;99443.87;4448872;79;28536;-83
2022/03/16 05:57:02;;;;;;;46.70;22.20;;;;;;;12.69;45.68;99441.39;4437729;78;28558;-82
2022/03/16 06:03:03;;;;;;;41.23;19.80;;;;;;;12.75;46.74;99447.18;4362612;80;28492;-91
2022/03/16 06:09:05;;;;;;;38.90;19.57;;;;;;;12.78;47.52;99458.03;4440842;78;28513;-84
2022/03/16 06:15:07;;;;;;;33.33;17.70;;;;;;;12.94;48.91;99460.55;4439900;79;28583;-86
2022/03/16 06:21:09;;;;;;;31.57;16.67;;;;;;;13.27;48.62;99458.27;4365509;80;28541;-80
2022/03/16 06:27:10;;;;;;;30.97;17.02;;;;;;;13.42;49.58;99468.56;4367285;80;28575;-81
2022/03/16 06:33:12;;;;;;;23.85;14.38;;;;;;;13.50;50.69;99469.58;4331523;80;28460;-81
2022/03/16 06:39:14;;;;;;;25.77;13.88;;;;;;;13.69;52.27;99478.31;4351035;80;28519;-83
2022/03/16 06:45:16;;;;;;;21.77;13.13;;;;;;;13.78;52.39;99474.69;4346959;80;28566;-82
2022/03/16 06:51:18;;;;;;;19.10;12.05;;;;;;;13.82;54.38;99475.86;4352679;80;28489;-85
2022/03/16 06:57:19;;;;;;;16.57;10.35;;;;;;;13.96;54.17;99475.03;4369325;80;28641;-85
2022/03/16 07:03:23;;;;;;;15.65;9.83;;;;;;;14.00;56.91;99482.10;4329256;80;28551;-83
2022/03/16 07:09:24;;;;;;;14.90;9.50;;;;;;;14.38;54.75;99482.50;4341465;80;28543;-86
2022/03/16 07:15:26;;;;;;;14.33;9.15;;;;;;;14.04;57.62;99490.03;4345128;81;28521;-85
2022/03/16 07:21:27;;;;;;;14.95;9.10;;;;;;;14.15;56.88;99493.20;4345167;80;28527;-83
2022/03/16 07:27:29;;;;;;;15.90;9.65;;;;;;;14.53;55.52;99511.69;4344241;80;28513;-84
2022/03/16 07:33:31;;;;;;;17.50;9.40;;;;;;;14.44;56.02;99518.85;4343174;80;28769;-83
2022/03/16 07:39:33;;;;;;;14.18;8.90;;;;;;;14.41;56.41;99527.44;4354231;80;28591;-85
2022/03/16 07:45:35;;;;;;;15.53;8.98;;;;;;;14.81;54.42;99552.76;4370322;80;28511;-82
2022/03/16 07:51:36;;;;;;;13.18;8.58;;;;;;;15.10;52.37;99559.95;4354353;80;28560;-86
2022/03/16 07:57:37;;;;;;;15.13;8.83;;;;;;;15.17;52.40;99566.02;4358257;80;28572;-85
2022/03/16 08:03:39;;;;;;;15.83;9.28;;;;;;;15.37;52.02;99568.19;4358408;80;28529;-85
2022/03/16 08:09:40;;;;;;;16.42;10.00;;;;;;;15.26;52.08;99578.07;4348916;80;28489;-84
2022/03/16 08:15:43;;;;;;;15.13;10.25;;;;;;;14.96;53.14;99576.55;4370008;80;28567;-86
2022/03/16 08:21:44;;;;;;;18.05;10.45;;;;;;;15.51;50.16;99578.65;4348418;80;28578;-81
2022/03/16 08:27:46;;;;;;;17.12;10.48;;;;;;;15.33;51.36;99575.18;4362828;80;28512;-81
2022/03/16 08:33:48;;;;;;;17.95;11.30;;;;;;;15.30;51.64;99582.43;4354763;80;28445;-84
2022/03/16 08:39:49;;;;;;;15.78;9.55;;;;;;;15.34;51.69;99583.04;4365634;80;28587;-84
2022/03/16 08:45:51;;;;;;;16.35;10.35;;;;;;;15.40;51.59;99593.41;4361591;80;28481;-85
2022/03/16 08:51:52;;;;;;;18.05;10.00;;;;;;;15.87;49.73;99590.77;4354399;80;28541;-87
2022/03/16 08:57:53;;;;;;;18.30;10.90;;;;;;;16.15;49.09;99590.86;4351490;80;28590;-92
2022/03/16 09:03:54;;;;;;;17.12;10.75;;;;;;;15.91;49.16;99598.45;4342569;80;28565;-88
2022/03/16 09:09:56;;;;;;;18.27;11.38;;;;;;;16.08;48.29;99597.81;4363068;80;28606;-86
2022/03/16 09:15:59;;;;;;;17.45;11.15;;;;;;;16.07;48.36;99602.96;4367175;80;28616;-85
2022/03/16 09:22:00;;;;;;;20.02;11.83;;;;;;;16.30;47.75;99626.84;4352526;80;28466;-85
2022/03/16 09:28:02;;;;;;;18.17;10.78;;;;;;;16.25;47.64;99634.91;4352545;80;28531;-84
2022/03/16 09:34:07;;;;;;;19.50;11.22;;;;;;;16.51;47.01;99644.69;4353659;80;28466;-88
2022/03/16 09:40:09;;;;;;;23.90;13.90;;;;;;;16.25;46.81;99649.83;4355288;80;28475;-87
2022/03/16 09:46:19;;;;;;;23.35;13.58;;;;;;;16.20;46.87;99652.50;4349062;80;28462;-85
2022/03/16 09:52:19;;;;;;;25.15;14.63;;;;;;;15.96;45.99;99679.84;4341064;80;28549;-86
2022/03/16 09:58:21;;;;;;;20.37;13.45;;;;;;;16.62;44.52;99687.67;4376841;79;28515;-86
2022/03/16 10:04:30;;;;;;;21.85;13.28;;;;;;;17.11;44.33;99681.37;4436373;78;28482;-89
2022/03/16 10:23:35;;;;;;;24.00;14.90;;;;;;;17.34;41.77;99705.19;4359002;80;28622;-87
2022/03/16 10:29:36;;;;;;;24.52;15.00;;;;;;;17.02;42.11;99719.59;4340126;80;28531;-85
2022/03/16 10:36:00;;;;;;;24.55;15.03;;;;;;;17.26;41.65;99715.48;4348861;80;28530;-91
2022/03/16 10:48:29;;;;;;;24.92;15.78;;;;;;;17.31;40.76;99722.86;4352025;80;28537;-88
2022/03/16 10:54:35;;;;;;;32.33;17.62;;;;;;;17.02;40.67;99736.72;4338238;80;28503;-87
2022/03/16 11:00:39;;;;;;;32.07;18.47;;;;;;;16.70;40.15;99740.16;4327150;80;28498;-90
2022/03/16 11:06:41;;;;;;;34.85;19.48;;;;;;;16.54;37.36;99744.60;4336598;80;28531;-88
2022/03/16 11:19:07;;;;;;;29.85;17.23;;;;;;;16.26;35.62;99754.56;4411308;79;28532;-88
2022/03/16 11:25:13;;;;;;;32.53;19.12;;;;;;;16.35;35.65;99757.64;4418559;78;28508;-83
2022/03/16 11:31:15;;;;;;;28.52;17.85;;;;;;;16.42;36.29;99769.98;4375777;80;28485;-87
2022/03/16 11:37:17;;;;;;;30.92;17.92;;;;;;;16.67;35.76;99769.19;4364483;80;28534;-88
2022/03/16 11:43:24;;;;;;;31.80;19.05;;;;;;;16.98;34.41;99782.55;4360847;80;28568;-86
2022/03/16 11:49:30;;;;;;;30.60;18.82;;;;;;;17.04;34.56;99765.80;4367399;80;28536;-83
2022/03/16 11:55:42;;;;;;;36.90;21.10;;;;;;;17.19;34.71;99776.00;4373093;80;28491;-83
2022/03/16 12:01:58;;;;;;;34.40;20.57;;;;;;;17.14;34.65;99768.62;4360514;80;28513;-83
2022/03/16 12:08:14;;;;;;;36.70;20.48;;;;;;;17.28;34.11;99774.98;4359904;80;29042;-80
2022/03/16 12:14:18;;;;;;;42.00;21.95;;;;;;;17.34;34.31;99778.56;4385617;81;28509;-81
2022/03/16 12:20:31;;;;;;;37.05;23.18;;;;;;;17.14;34.36;99787.63;4390014;81;28463;-83
2022/03/16 12:28:55;;;;;;;41.25;23.10;;;;;;;17.14;33.62;99797.70;4400369;79;28460;-82
2022/03/16 12:32:38;;;;;;;40.85;23.05;;;;;;;16.91;33.88;99790.07;4445006;80;28520;-85
2022/03/16 12:38:47;;;;;;;39.27;23.07;;;;;;;17.43;33.22;99789.25;4402597;80;28643;-81
2022/03/16 12:44:55;;;;;;;43.40;23.02;;;;;;;17.67;33.43;99784.84;4426841;79;28501;-80
2022/03/16 12:50:55;;;;;;;31.95;19.05;;;;;;;17.25;33.75;99806.23;4448466;80;28510;-80
2022/03/16 12:57:06;;;;;;;30.57;18.17;;;;;;;17.07;35.19;99805.22;4349155;81;28512;-81
2022/03/16 13:03:15;;;;;;;31.73;19.17;;;;;;;17.31;35.43;99813.06;4332171;81;28544;-81
2022/03/16 13:09:16;;;;;;;31.48;19.92;;;;;;;17.59;35.40;99817.94;4331898;81;28532;-81
2022/03/16 13:15:25;;;;;;;32.50;20.50;;;;;;;17.87;35.15;99822.80;4370614;81;28545;-79
2022/03/16 13:21:27;;;;;;;30.43;19.25;;;;;;;17.90;35.35;99816.83;4372742;81;28452;-80
2022/03/16 13:27:34;;;;;;;29.82;17.95;;;;;;;17.97;35.02;99814.16;4341284;81;28490;-79
2022/03/16 13:33:36;;;;;;;28.60;16.93;;;;;;;17.72;35.63;99831.09;4375088;81;28552;-79
2022/03/16 13:39:37;;;;;;;28.57;17.73;;;;;;;18.13;35.28;99821.64;4330855;81;28485;-78
2022/03/16 13:45:44;;;;;;;28.50;16.82;;;;;;;17.96;35.91;99822.56;4399743;80;28466;-77
2022/03/16 13:52:05;;;;;;;21.10;15.00;;;;;;;17.88;36.22;99834.76;4327388;80;28538;-79
2022/03/16 13:58:12;;;;;;;22.15;12.30;;;;;;;17.67;36.60;99846.83;4351404;80;28525;-78
2022/03/16 14:04:18;;;;;;;18.65;12.55;;;;;;;17.60;35.00;99857.13;4379146;80;28504;-79
2022/03/16 14:10:25;;;;;;;20.10;13.33;;;;;;;17.65;34.72;99863.95;4386965;80;28458;-81
2022/03/16 14:16:34;;;;;;;20.30;13.38;;;;;;;18.36;34.42;99853.09;4424185;78;28477;-80
2022/03/16 14:22:35;;;;;;;21.75;14.25;;;;;;;17.87;35.20;99871.76;4443878;78;28505;-79
2022/03/16 14:28:36;;;;;;;18.20;12.65;;;;;;;17.19;35.42;99883.33;4412281;80;28550;-82
2022/03/16 14:34:39;;;;;;;18.05;11.60;;;;;;;17.29;35.00;99881.27;4417363;79;28536;-82
2022/03/16 14:40:41;;;;;;;17.10;10.68;;;;;;;17.03;34.82;99893.75;4433974;80;28526;-85
2022/03/16 14:46:43;;;;;;;15.95;10.28;;;;;;;17.20;33.59;99889.59;4396610;79;28457;-81
2022/03/16 14:52:44;;;;;;;17.75;11.78;;;;;;;17.38;33.71;99897.38;4435820;79;28481;-83
2022/03/16 14:58:45;;;;;;;18.00;10.90;;;;;;;17.53;34.20;99902.72;4370776;80;28482;-83
2022/03/16 15:04:47;;;;;;;18.90;11.68;;;;;;;17.70;34.07;99903.44;4367128;80;28535;-83
2022/03/16 15:10:49;;;;;;;22.27;13.65;;;;;;;17.57;34.39;99909.27;4375126;81;28481;-82
2022/03/16 15:16:50;;;;;;;17.65;10.93;;;;;;;17.34;35.14;99913.93;4402920;80;28490;-82
2022/03/16 15:22:52;;;;;;;19.65;11.63;;;;;;;16.66;35.94;99927.17;4357005;81;28833;-79
2022/03/16 15:28:53;;;;;;;17.57;10.70;;;;;;;16.88;35.54;99919.59;4417931;80;28511;-82
2022/03/16 15:34:55;;;;;;;18.35;10.70;;;;;;;16.99;35.13;99927.35;4439530;80;28528;-82
2022/03/16 15:47:17;;;;;;;21.07;11.20;;;;;;;16.86;34.87;99944.83;4429429;78;28492;-83
2022/03/16 15:53:19;;;;;;;21.68;11.83;;;;;;;16.57;35.05;99948.51;4466596;80;28496;-81
2022/03/16 15:59:23;;;;;;;20.40;12.18;;;;;;;16.73;34.62;99965.84;4470216;79;28532;-84
2022/03/16 16:05:24;;;;;;;20.90;11.80;;;;;;;16.66;34.46;99971.97;4448821;80;28553;-83
2022/03/16 16:11:27;;;;;;;20.52;11.93;;;;;;;16.54;34.62;99975.32;4448942;78;28483;-85
2022/03/16 16:17:28;;;;;;;18.92;11.68;;;;;;;16.57;34.74;99978.89;4455437;80;28496;-83
2022/03/16 16:23:31;;;;;;;18.52;10.95;;;;;;;16.47;34.70;99989.06;4454145;80;28429;-85
2022/03/16 16:29:43;;;;;;;18.23;10.38;;;;;;;16.46;34.69;99991.49;4454890;78;28529;-84
2022/03/16 16:35:42;;;;;;;22.55;11.53;;;;;;;16.41;34.86;100005.80;4372863;80;28594;-81
2022/03/16 16:41:45;;;;;;;23.12;11.05;;;;;;;16.25;35.17;100014.73;4460760;78;28485;-85
2022/03/16 16:47:51;;;;;;;18.52;11.10;;;;;;;15.97;35.44;100021.31;4422984;78;28522;-82
2022/03/16 16:53:54;;;;;;;20.62;11.33;;;;;;;15.70;35.99;100033.23;4393258;79;28486;-86
2022/03/16 16:59:56;;;;;;;15.95;10.63;;;;;;;15.43;36.04;100039.19;4436222;80;28489;-83
2022/03/16 17:06:00;;;;;;;21.10;10.93;;;;;;;15.18;36.21;100054.65;4414829;80;28529;-80
2022/03/16 17:12:01;;;;;;;19.23;11.25;;;;;;;15.02;35.98;100063.50;4426333;80;28552;-83
2022/03/16 17:18:02;;;;;;;20.20;10.88;;;;;;;14.92;35.53;100081.67;4465636;78;28477;-83
2022/03/16 17:24:06;;;;;;;19.45;10.40;;;;;;;15.07;35.06;100081.75;4459044;78;28486;-85
2022/03/16 17:30:14;;;;;;;21.90;10.53;;;;;;;14.98;35.10;100096.16;4448130;78;28525;-80
2022/03/16 17:36:15;;;;;;;19.55;10.50;;;;;;;14.93;35.29;100098.76;4420572;78;28558;-81
2022/03/16 17:48:36;;;;;;;22.22;11.05;;;;;;;14.40;36.48;100099.30;4336502;80;28511;-86
2022/03/16 17:54:37;;;;;;;20.12;10.45;;;;;;;14.14;37.19;100103.20;4341276;80;28509;-78
2022/03/16 18:00:42;;;;;;;22.80;10.58;;;;;;;14.06;36.67;100112.47;4337391;81;28492;-80
2022/03/16 18:06:43;;;;;;;21.73;10.48;;;;;;;13.88;37.03;100114.67;4360100;80;28497;-82
2022/03/16 18:13:00;;;;;;;19.98;9.93;;;;;;;13.55;37.26;100115.89;4361829;80;28489;-80
2022/03/16 18:19:01;;;;;;;19.27;10.32;;;;;;;13.38;37.35;100120.48;4373615;80;28550;-85
2022/03/16 18:25:05;;;;;;;19.70;10.10;;;;;;;13.15;38.58;100127.85;4361885;79;28563;-81
2022/03/16 18:31:06;;;;;;;21.33;10.95;;;;;;;12.82;38.92;100131.14;4330035;82;28481;-83
2022/03/16 18:37:10;;;;;;;19.82;10.65;;;;;;;12.73;38.88;100137.85;4341854;82;28497;-86
2022/03/16 18:43:12;;;;;;;25.65;12.05;;;;;;;12.68;39.58;100139.31;4320519;81;28522;-85
2022/03/16 18:49:14;;;;;;;29.18;13.22;;;;;;;12.25;40.17;100146.22;4351058;79;28507;-84
2022/03/16 18:55:16;;;;;;;25.27;12.90;;;;;;;12.49;39.32;100153.75;4378847;79;28511;-85
2022/03/16 19:01:25;;;;;;;33.38;16.05;;;;;;;12.68;38.63;100154.16;4377109;79;28571;-84
2022/03/16 19:07:22;;;;;;;33.35;17.82;;;;;;;12.70;38.38;100163.39;4384331;79;28579;-84
2022/03/16 19:19:45;;;;;;;40.90;21.90;;;;;;;12.74;38.00;100179.44;4381201;79;28516;-82
2022/03/16 19:25:48;;;;;;;43.48;22.48;;;;;;;12.80;38.02;100187.19;4379492;79;28509;-82
2022/03/16 19:31:50;;;;;;;47.08;23.50;;;;;;;12.83;37.87;100197.02;4380193;80;28538;-82
2022/03/16 19:37:54;;;;;;;51.08;24.85;;;;;;;12.49;38.47;100199.09;4423968;80;28517;-82
2022/03/16 19:43:55;;;;;;;48.35;24.55;;;;;;;12.54;38.54;100193.06;4445768;78;28521;-81
2022/03/16 19:49:57;;;;;;;45.52;23.38;;;;;;;12.30;38.95;100197.31;4423338;78;28557;-81
2022/03/16 19:55:59;;;;;;;49.48;22.48;;;;;;;12.31;38.85;100200.31;4434353;79;28527;-84
2022/03/16 20:02:00;;;;;;;49.35;24.32;;;;;;;12.20;39.14;100205.88;4364476;79;28497;-84
2022/03/16 20:08:02;;;;;;;48.48;23.90;;;;;;;11.99;39.50;100213.16;4372794;79;28527;-78
2022/03/16 20:14:05;;;;;;;44.08;22.37;;;;;;;11.88;39.52;100232.14;4387281;79;28514;-76
2022/03/16 20:20:11;;;;;;;50.90;23.87;;;;;;;11.83;39.53;100233.30;4441097;78;28517;-80
2022/03/16 20:26:12;;;;;;;44.53;22.87;;;;;;;11.41;40.05;100238.42;4383113;79;28541;-81
2022/03/16 20:32:15;;;;;;;47.93;23.10;;;;;;;11.38;40.48;100248.23;4442626;78;28510;-78
2022/03/16 20:38:16;;;;;;;55.17;24.07;;;;;;;11.35;40.13;100254.55;4370432;80;28574;-79
2022/03/16 20:44:18;;;;;;;49.48;24.10;;;;;;;11.15;40.53;100254.84;4364794;80;28494;-80
2022/03/16 20:50:19;;;;;;;52.58;25.20;;;;;;;10.82;41.33;100264.19;4373632;80;28513;-81
2022/03/16 20:56:21;;;;;;;48.98;23.32;;;;;;;10.87;41.20;100265.77;4380234;80;28507;-81
2022/03/16 21:02:22;;;;;;;45.80;23.87;;;;;;;10.76;41.85;100276.58;4358449;79;28517;-80
2022/03/16 21:08:24;;;;;;;46.18;24.20;;;;;;;10.78;41.92;100278.58;4401455;80;28433;-82
2022/03/16 21:14:27;;;;;;;52.00;24.32;;;;;;;10.60;42.32;100291.22;4397489;79;28509;-81
2022/03/16 21:20:31;;;;;;;46.75;22.87;;;;;;;10.75;42.14;100293.76;4359430;79;28449;-80
2022/03/16 21:26:34;;;;;;;45.92;22.60;;;;;;;10.39;43.43;100304.23;4387138;80;28483;-80
2022/03/16 21:32:40;;;;;;;51.20;23.32;;;;;;;10.37;43.73;100304.95;4400432;81;28520;-80
2022/03/16 21:38:42;;;;;;;49.90;24.02;;;;;;;9.93;44.47;100311.78;4433131;78;28488;-80
2022/03/16 21:44:47;;;;;;;50.48;24.52;;;;;;;10.11;44.41;100318.03;4435645;78;28589;-80
2022/03/16 21:51:39;;;;;;;44.30;23.35;;;;;;;10.09;44.09;100315.22;4441944;78;28545;-79
2022/03/16 21:56:53;;;;;;;53.42;25.97;;;;;;;10.15;44.18;100313.91;4437163;78;28557;-78
2022/03/16 22:02:55;;;;;;;50.95;23.57;;;;;;;9.92;45.00;100316.84;4435463;78;28519;-79
2022/03/16 22:08:57;;;;;;;49.73;23.55;;;;;;;9.67;45.06;100321.30;4428000;78;28546;-80
2022/03/16 22:14:58;;;;;;;47.73;23.05;;;;;;;9.51;45.72;100327.78;4448550;78;28513;-79
2022/03/16 22:27:20;;;;;;;47.25;21.68;;;;;;;9.41;46.46;100332.63;4426529;78;28517;-78
2022/03/16 22:33:22;;;;;;;51.50;22.17;;;;;;;9.24;47.21;100336.89;4352944;79;28515;-80
2022/03/16 22:39:24;;;;;;;48.50;22.77;;;;;;;9.17;46.72;100349.43;4380698;79;28554;-79
2022/03/16 22:45:25;;;;;;;43.95;22.87;;;;;;;9.37;46.69;100353.66;4364204;79;28495;-82
2022/03/16 22:51:26;;;;;;;52.43;24.82;;;;;;;9.31;47.55;100362.45;4359390;79;28476;-81
2022/03/16 22:57:28;;;;;;;49.53;25.00;;;;;;;9.17;48.23;100361.50;4370134;79;28503;-81
2022/03/16 23:03:29;;;;;;;63.23;29.85;;;;;;;9.12;48.07;100357.20;4379738;79;28508;-80
2022/03/16 23:09:31;;;;;;;53.33;25.88;;;;;;;9.31;49.17;100365.14;4433590;78;28536;-79
2022/03/16 23:15:32;;;;;;;65.03;31.42;;;;;;;9.36;47.90;100372.13;4375931;80;28477;-80
2022/03/16 23:21:33;;;;;;;71.53;31.52;;;;;;;9.56;49.96;100381.71;4334975;80;28514;-80
2022/03/16 23:27:35;;;;;;;64.87;30.65;;;;;;;9.48;49.71;100374.62;4363504;80;28516;-80
2022/03/16 23:33:37;;;;;;;73.25;32.88;;;;;;;9.32;50.43;100365.45;4356018;80;28547;-80
2022/03/16 23:39:38;;;;;;;80.12;36.60;;;;;;;9.20;51.43;100370.51;4372937;79;28578;-80
2022/03/16 23:45:40;;;;;;;86.10;37.23;;;;;;;9.11;52.63;100373.83;4389812;80;28504;-80
2022/03/16 23:51:41;;;;;;;78.55;37.80;;;;;;;9.22;52.10;100381.06;4398678;80;28501;-80
2022/03/16 23:57:42;;;;;;;73.22;37.10;;;;;;;9.38;51.35;100397.45;4422882;80;28564;-79
